createdAt,value
2022-10-26T00:04:08.917Z,8.10
2022-10-26T00:09:00.682Z,7.65
2022-10-26T00:13:52.401Z,6.55
2022-10-26T00:18:44.078Z,11.85
2022-10-26T00:23:36.170Z,7.80
2022-10-26T00:28:28.305Z,6.90
2022-10-26T00:33:20.257Z,6.90
2022-10-26T00:38:11.990Z,8.20
2022-10-26T00:43:03.820Z,13.18
2022-10-26T00:47:58.716Z,4.88
2022-10-26T00:52:53.029Z,6.10
2022-10-26T00:57:44.985Z,7.85
2022-10-26T01:02:36.719Z,7.05
2022-10-26T01:07:28.396Z,8.27
2022-10-26T01:12:20.102Z,6.90
2022-10-26T01:17:11.881Z,7.85
2022-10-26T01:22:12.716Z,7.18
2022-10-26T01:27:13.597Z,6.05
2022-10-26T01:32:13.136Z,8.18
2022-10-26T01:37:12.801Z,10.73
2022-10-26T01:42:07.267Z,7.30
2022-10-26T01:47:01.641Z,7.72
2022-10-26T01:51:53.412Z,4.68
2022-10-26T01:56:52.314Z,6.25
2022-10-26T02:01:44.366Z,7.63
2022-10-26T02:07:04.531Z,6.82
2022-10-26T02:11:57.039Z,5.93
2022-10-26T02:16:48.618Z,7.57
2022-10-26T02:21:49.033Z,5.78
2022-10-26T02:26:44.190Z,5.95
2022-10-26T02:31:37.951Z,7.13
2022-10-26T02:36:33.510Z,6.40
2022-10-26T02:41:28.292Z,6.88
2022-10-26T02:46:23.609Z,3.03
2022-10-26T02:51:21.416Z,7.28
2022-10-26T02:56:20.430Z,4.97
2022-10-26T03:01:13.481Z,6.63
2022-10-26T03:06:05.320Z,7.30
2022-10-26T03:10:58.057Z,5.38
2022-10-26T03:15:49.803Z,5.07
2022-10-26T03:20:44.920Z,6.43
2022-10-26T03:25:36.628Z,5.65
2022-10-26T03:30:29.574Z,6.68
2022-10-26T03:35:21.434Z,7.43
2022-10-26T03:40:13.639Z,5.28
2022-10-26T03:45:06.411Z,6.32
2022-10-26T03:49:58.135Z,3.35
2022-10-26T03:54:50.100Z,3.20
2022-10-26T03:59:41.697Z,7.18
2022-10-26T04:04:33.448Z,6.95
2022-10-26T04:09:25.179Z,3.92
2022-10-26T04:14:16.820Z,5.00
2022-10-26T04:19:08.613Z,4.20
2022-10-26T04:24:00.250Z,5.72
2022-10-26T04:28:51.942Z,4.50
2022-10-26T04:33:43.599Z,5.30
2022-10-26T04:38:35.262Z,5.00
2022-10-26T04:43:27.023Z,3.67
2022-10-26T04:48:18.751Z,4.82
2022-10-26T04:53:10.508Z,3.10
2022-10-26T04:58:02.643Z,4.90
2022-10-26T05:02:59.996Z,5.65
2022-10-26T05:07:56.320Z,3.78
2022-10-26T05:12:59.457Z,7.00
2022-10-26T05:18:05.833Z,2.88
2022-10-26T05:22:58.797Z,5.07
2022-10-26T05:27:50.421Z,5.50
2022-10-26T05:32:42.099Z,8.80
2022-10-26T05:37:33.932Z,5.85
2022-10-26T05:42:25.605Z,5.70
2022-10-26T05:47:17.390Z,6.75
2022-10-26T05:52:09.165Z,7.00
2022-10-26T05:57:01.302Z,4.15
2022-10-26T06:02:05.031Z,7.32
2022-10-26T06:06:57.593Z,3.17
2022-10-26T06:16:50.666Z,6.53
2022-10-26T06:21:54.234Z,6.97
2022-10-26T06:27:19.799Z,7.05
2022-10-26T06:32:12.249Z,7.57
2022-10-26T06:37:04.970Z,8.00
2022-10-26T06:41:58.016Z,7.05
2022-10-26T06:47:34.054Z,5.10
2022-10-26T06:52:30.106Z,7.63
2022-10-26T06:57:24.065Z,11.75
2022-10-26T07:02:15.894Z,11.15
2022-10-26T07:07:12.010Z,6.13
2022-10-26T07:12:03.945Z,10.05
2022-10-26T07:16:57.141Z,7.60
2022-10-26T07:21:48.853Z,7.57
2022-10-26T07:26:40.670Z,9.23
2022-10-26T07:31:32.354Z,9.80
2022-10-26T07:36:24.174Z,7.53
2022-10-26T07:41:15.875Z,10.50
2022-10-26T07:46:07.535Z,8.43
2022-10-26T07:51:03.059Z,7.55
2022-10-26T07:55:56.225Z,10.18
2022-10-26T08:00:48.091Z,9.27
2022-10-26T08:05:39.772Z,9.23
2022-10-26T08:10:31.634Z,7.25
2022-10-26T08:15:23.260Z,8.13
2022-10-26T08:20:15.026Z,10.20
2022-10-26T08:25:06.893Z,6.07
2022-10-26T08:29:58.537Z,7.05
2022-10-26T08:34:50.215Z,6.15
2022-10-26T08:39:41.875Z,6.45
2022-10-26T08:44:44.551Z,6.95
2022-10-26T08:49:48.853Z,5.85
2022-10-26T08:54:44.885Z,2.50
2022-10-26T08:59:42.965Z,9.13
2022-10-26T09:04:35.792Z,7.28
2022-10-26T09:10:01.054Z,5.70
2022-10-26T09:15:26.569Z,5.40
2022-10-26T09:20:33.131Z,6.65
2022-10-26T09:25:29.667Z,6.40
2022-10-26T09:30:22.260Z,4.93
2022-10-26T09:35:24.468Z,5.60
2022-10-26T09:40:28.232Z,5.38
2022-10-26T09:45:28.742Z,3.00
2022-10-26T09:50:37.233Z,5.75
2022-10-26T09:55:31.242Z,8.20
2022-10-26T10:00:25.386Z,3.20
2022-10-26T10:10:38.255Z,5.13
2022-10-26T10:15:29.982Z,5.68
2022-10-26T10:20:24.866Z,3.38
2022-10-26T10:25:32.296Z,4.40
2022-10-26T10:30:32.575Z,5.13
2022-10-26T10:35:29.650Z,5.55
2022-10-26T10:40:27.349Z,6.55
2022-10-26T10:45:25.025Z,7.53
2022-10-26T10:50:20.666Z,7.78
2022-10-26T10:55:19.831Z,7.50
2022-10-26T11:00:12.786Z,10.00
2022-10-26T11:05:22.028Z,5.68
2022-10-26T11:10:19.845Z,7.30
2022-10-26T11:15:20.531Z,6.68
2022-10-26T11:20:19.301Z,11.10
2022-10-26T11:25:22.577Z,9.75
2022-10-26T11:30:20.150Z,9.75
2022-10-26T11:35:15.548Z,6.75
2022-10-26T11:40:26.770Z,7.55
2022-10-26T11:45:24.897Z,5.40
2022-10-26T11:50:29.823Z,4.03
2022-10-26T11:55:23.025Z,9.18
2022-10-26T12:00:18.083Z,5.97
2022-10-26T12:05:15.776Z,7.85
2022-10-26T12:10:24.686Z,12.68
2022-10-26T12:21:02.838Z,7.65
2022-10-26T12:26:23.368Z,7.25
2022-10-26T12:31:37.279Z,5.85
2022-10-26T12:36:56.953Z,11.48
2022-10-26T12:41:57.813Z,10.10
2022-10-26T12:46:49.414Z,11.43
2022-10-26T12:51:43.366Z,10.88
2022-10-26T12:57:08.064Z,9.13
2022-10-26T13:02:37.886Z,13.70
2022-10-26T13:07:36.555Z,10.57
2022-10-26T13:12:36.050Z,9.25
2022-10-26T13:17:31.552Z,8.63
2022-10-26T13:22:24.673Z,13.93
2022-10-26T13:27:16.287Z,7.72
2022-10-26T13:32:08.767Z,11.60
2022-10-26T13:37:26.165Z,10.23
2022-10-26T13:42:21.818Z,11.20
2022-10-26T13:47:27.196Z,12.85
2022-10-26T13:52:33.173Z,9.73
2022-10-26T13:57:43.771Z,11.88
2022-10-26T14:02:43.027Z,13.50
2022-10-26T14:07:43.652Z,10.07
2022-10-26T14:12:35.427Z,10.23
2022-10-26T14:17:27.153Z,11.20
2022-10-26T14:22:23.239Z,8.68
2022-10-26T14:27:21.286Z,13.98
2022-10-26T14:32:33.575Z,10.82
2022-10-26T14:37:54.094Z,8.98
2022-10-26T14:42:51.532Z,8.45
2022-10-26T14:52:38.668Z,11.05
2022-10-26T14:57:36.972Z,10.55
2022-10-26T15:02:28.778Z,6.43
2022-10-26T15:07:20.438Z,14.32
2022-10-26T15:12:22.822Z,11.85
2022-10-26T15:17:22.697Z,13.43
2022-10-26T15:22:33.645Z,14.35
2022-10-26T15:27:25.830Z,8.75
2022-10-26T15:32:32.354Z,14.55
2022-10-26T15:37:24.029Z,10.18
2022-10-26T15:42:15.750Z,15.65
2022-10-26T15:47:18.836Z,16.10
2022-10-26T15:52:10.692Z,9.48
2022-10-26T15:57:02.441Z,11.57
2022-10-26T16:01:54.397Z,12.63
2022-10-26T16:06:46.667Z,13.95
2022-10-26T16:11:38.575Z,9.85
2022-10-26T16:16:30.336Z,14.95
2022-10-26T16:21:23.142Z,18.35
2022-10-26T16:26:15.149Z,12.10
2022-10-26T16:31:10.349Z,15.75
2022-10-26T16:36:03.292Z,16.00
2022-10-26T16:41:12.432Z,9.25
2022-10-26T16:46:13.949Z,11.63
2022-10-26T16:51:11.297Z,16.05
2022-10-26T16:56:08.523Z,11.57
2022-10-26T17:01:00.405Z,15.07
2022-10-26T17:06:03.850Z,16.45
2022-10-26T17:11:01.769Z,11.32
2022-10-26T17:15:53.712Z,17.58
2022-10-26T17:20:50.812Z,8.45
2022-10-26T17:25:42.566Z,13.77
2022-10-26T17:30:34.995Z,7.45
2022-10-26T17:35:26.741Z,15.65
2022-10-26T17:40:18.412Z,7.22
2022-10-26T17:45:10.527Z,14.55
2022-10-26T17:50:04.939Z,8.10
2022-10-26T17:54:59.204Z,8.25
2022-10-26T17:59:53.576Z,12.10
2022-10-26T18:04:45.878Z,6.53
2022-10-26T18:09:37.739Z,11.05
2022-10-26T18:14:29.538Z,11.75
2022-10-26T18:19:21.362Z,11.65
2022-10-26T18:24:13.010Z,9.82
2022-10-26T18:29:05.880Z,12.48
2022-10-26T18:34:02.677Z,10.40
2022-10-26T18:38:55.238Z,12.88
2022-10-26T18:43:52.027Z,11.43
2022-10-26T18:48:43.850Z,12.00
2022-10-26T18:53:37.349Z,18.25
2022-10-26T18:58:30.746Z,20.45
2022-10-26T19:03:22.421Z,13.57
2022-10-26T19:08:14.065Z,12.20
2022-10-26T19:13:07.340Z,14.30
2022-10-26T19:17:59.832Z,13.85
2022-10-26T19:22:54.709Z,8.93
2022-10-26T19:27:47.082Z,15.85
2022-10-26T19:32:39.367Z,11.07
2022-10-26T19:37:31.145Z,9.55
2022-10-26T19:42:22.929Z,12.85
2022-10-26T19:47:14.672Z,10.00
2022-10-26T19:52:06.319Z,15.63
2022-10-26T19:56:58.274Z,8.85
2022-10-26T20:01:49.953Z,10.73
2022-10-26T20:06:41.637Z,11.25
2022-10-26T20:11:35.134Z,6.53
2022-10-26T20:16:26.892Z,10.57
2022-10-26T20:21:18.604Z,13.07
2022-10-26T20:26:11.917Z,13.65
2022-10-26T20:31:05.475Z,14.95
2022-10-26T20:36:00.369Z,14.05
2022-10-26T20:40:57.671Z,10.98
2022-10-26T20:45:49.646Z,15.00
2022-10-26T20:50:44.604Z,12.52
2022-10-26T20:55:42.930Z,12.20
2022-10-26T21:00:42.956Z,16.55
2022-10-26T21:05:34.935Z,12.38
2022-10-26T21:10:29.438Z,12.52
2022-10-26T21:15:21.164Z,16.83
2022-10-26T21:20:12.858Z,11.63
2022-10-26T21:25:04.715Z,10.60
2022-10-26T21:29:56.617Z,10.98
2022-10-26T21:34:48.253Z,11.40
2022-10-26T21:39:39.907Z,11.93
2022-10-26T21:44:46.868Z,11.82
2022-10-26T21:54:36.188Z,14.40
2022-10-26T21:59:27.841Z,19.00
2022-10-26T22:04:19.607Z,12.80
2022-10-26T22:09:11.216Z,15.88
2022-10-26T22:14:02.945Z,13.27
2022-10-26T22:18:56.357Z,11.73
2022-10-26T22:23:48.280Z,15.70
2022-10-26T22:28:42.839Z,21.10
2022-10-26T22:33:36.260Z,13.80
2022-10-26T22:38:27.983Z,20.05
2022-10-26T22:43:19.565Z,22.23
2022-10-26T22:48:11.225Z,17.77
2022-10-26T22:53:02.972Z,14.20
2022-10-26T22:57:54.909Z,16.00
2022-10-26T23:02:46.813Z,14.70
2022-10-26T23:07:38.491Z,12.93
2022-10-26T23:12:30.163Z,20.20
2022-10-26T23:17:21.869Z,17.52
2022-10-26T23:22:13.570Z,24.27
2022-10-26T23:27:05.170Z,20.45
2022-10-26T23:31:56.773Z,18.23
2022-10-26T23:36:48.773Z,12.88
2022-10-26T23:41:40.366Z,23.58
2022-10-26T23:46:32.070Z,19.20
2022-10-26T23:51:23.726Z,15.52
2022-10-26T23:56:15.401Z,18.63
